createdAt,value
2023-02-05T00:00:11.902Z,99828.41
2023-02-05T00:05:13.576Z,99832.72
2023-02-05T00:10:18.460Z,99837.34
2023-02-05T00:15:20.135Z,99833.31
2023-02-05T00:20:21.904Z,99822.34
2023-02-05T00:25:23.502Z,99822.69
2023-02-05T00:30:25.090Z,99829.38
2023-02-05T00:35:26.682Z,99830.13
2023-02-05T00:40:29.452Z,99837.28
2023-02-05T00:45:35.279Z,99839.38
2023-02-05T00:50:37.393Z,99840.72
2023-02-05T00:55:39.014Z,99842.03
2023-02-05T01:00:40.647Z,99852.34
2023-02-05T01:05:43.077Z,99855.81
2023-02-05T01:10:47.370Z,99846.56
2023-02-05T01:15:49.458Z,99832.44
2023-02-05T01:20:51.956Z,99819.09
2023-02-05T01:25:53.639Z,99823.84
2023-02-05T01:30:55.401Z,99816.59
2023-02-05T01:35:57.081Z,99811.03
2023-02-05T01:41:00.026Z,99808.81
2023-02-05T01:46:24.092Z,99807.19
2023-02-05T01:51:30.276Z,99796.25
2023-02-05T01:56:55.787Z,99786.34
2023-02-05T02:02:00.885Z,99769.66
2023-02-05T02:07:04.097Z,99757.00
2023-02-05T02:12:06.805Z,99751.84
2023-02-05T02:17:10.933Z,99734.13
2023-02-05T02:22:34.733Z,99726.38
2023-02-05T02:27:45.830Z,99723.84
2023-02-05T02:32:58.295Z,99708.81
2023-02-05T02:38:20.877Z,99708.19
2023-02-05T02:43:32.152Z,99709.34
2023-02-05T02:48:37.945Z,99697.94
2023-02-05T02:53:45.202Z,99693.19
2023-02-05T02:59:09.292Z,99694.53
2023-02-05T03:04:21.947Z,99693.06
2023-02-05T03:09:39.322Z,99688.03
2023-02-05T03:14:42.258Z,99681.53
2023-02-05T03:19:46.672Z,99682.66
2023-02-05T03:24:48.275Z,99689.38
2023-02-05T03:29:50.500Z,99681.19
2023-02-05T03:35:03.074Z,99683.13
2023-02-05T03:40:31.460Z,99684.50
2023-02-05T03:45:40.994Z,99682.06
2023-02-05T03:50:55.754Z,99677.81
2023-02-05T03:56:13.551Z,99687.13
2023-02-05T04:01:15.615Z,99694.75
2023-02-05T04:06:19.095Z,99686.47
2023-02-05T04:11:23.063Z,99687.28
2023-02-05T04:16:25.849Z,99669.16
2023-02-05T04:21:28.998Z,99679.16
2023-02-05T04:26:30.751Z,99676.84
2023-02-05T04:31:37.584Z,99688.94
2023-02-05T04:36:40.210Z,99687.97
2023-02-05T04:41:42.510Z,99670.91
2023-02-05T04:46:44.185Z,99679.81
2023-02-05T04:51:45.861Z,99673.63
2023-02-05T04:56:47.495Z,99679.38
2023-02-05T05:01:49.135Z,99686.16
2023-02-05T05:06:50.801Z,99686.88
2023-02-05T05:11:53.194Z,99707.94
2023-02-05T05:16:54.799Z,99705.50
2023-02-05T05:21:56.412Z,99708.78
2023-02-05T05:26:59.402Z,99719.22
2023-02-05T05:32:01.076Z,99709.69
2023-02-05T05:37:02.732Z,99716.38
2023-02-05T05:42:24.043Z,99720.47
2023-02-05T05:47:25.698Z,99715.50
2023-02-05T05:52:27.312Z,99704.66
2023-02-05T05:57:29.035Z,99706.47
2023-02-05T06:02:30.662Z,99713.31
2023-02-05T06:07:32.318Z,99714.81
2023-02-05T06:12:33.919Z,99715.66
2023-02-05T06:17:35.610Z,99715.69
2023-02-05T06:22:37.283Z,99729.28
2023-02-05T06:27:38.920Z,99718.28
2023-02-05T06:32:40.510Z,99708.03
2023-02-05T06:37:49.245Z,99724.00
2023-02-05T06:42:52.883Z,99710.28
2023-02-05T06:47:56.070Z,99705.88
2023-02-05T06:52:58.273Z,99710.66
2023-02-05T06:57:59.957Z,99693.69
2023-02-05T07:03:01.778Z,99697.28
2023-02-05T07:08:04.186Z,99707.88
2023-02-05T07:13:06.115Z,99706.59
2023-02-05T07:18:07.848Z,99712.25
2023-02-05T07:23:09.519Z,99712.50
2023-02-05T07:28:11.302Z,99711.28
2023-02-05T07:33:13.036Z,99698.72
2023-02-05T07:38:14.685Z,99710.50
2023-02-05T07:43:16.342Z,99713.56
2023-02-05T07:48:17.931Z,99719.03
2023-02-05T07:53:19.969Z,99714.28
2023-02-05T07:58:21.869Z,99706.47
2023-02-05T08:03:23.509Z,99699.22
2023-02-05T08:08:25.177Z,99698.75
2023-02-05T08:13:26.817Z,99700.19
2023-02-05T08:18:28.401Z,99690.88
2023-02-05T08:23:30.238Z,99696.34
2023-02-05T08:28:31.834Z,99688.53
2023-02-05T08:33:33.430Z,99683.78
2023-02-05T08:38:35.092Z,99670.69
2023-02-05T08:43:36.688Z,99657.88
2023-02-05T08:48:38.421Z,99661.19
2023-02-05T08:53:40.597Z,99652.63
2023-02-05T08:58:42.536Z,99646.25
2023-02-05T09:03:45.030Z,99643.53
2023-02-05T09:08:47.015Z,99638.16
2023-02-05T09:13:48.849Z,99625.75
2023-02-05T09:18:50.812Z,99618.06
2023-02-05T09:23:53.806Z,99620.41
2023-02-05T09:28:55.466Z,99610.88
2023-02-05T09:33:57.357Z,99593.59
2023-02-05T09:39:12.967Z,99590.94
2023-02-05T09:44:35.703Z,99583.94
2023-02-05T09:50:03.685Z,99588.31
2023-02-05T09:55:20.902Z,99580.84
2023-02-05T10:00:32.306Z,99587.13
2023-02-05T10:05:47.224Z,99587.25
2023-02-05T10:10:53.614Z,99595.47
2023-02-05T10:16:28.028Z,99594.44
2023-02-05T10:21:58.021Z,99586.19
2023-02-05T10:27:26.411Z,99583.03
2023-02-05T10:32:44.940Z,99581.69
2023-02-05T10:37:56.964Z,99575.97
2023-02-05T10:43:19.436Z,99565.53
2023-02-05T10:49:04.182Z,99561.06
2023-02-05T10:54:06.273Z,99567.88
2023-02-05T10:59:20.793Z,99560.56
2023-02-05T11:04:34.925Z,99554.06
2023-02-05T11:09:36.590Z,99547.13
2023-02-05T11:14:43.621Z,99548.28
2023-02-05T11:19:56.412Z,99534.66
2023-02-05T11:25:13.659Z,99528.91
2023-02-05T11:30:52.077Z,99521.19
2023-02-05T11:35:54.610Z,99521.56
2023-02-05T11:41:03.201Z,99524.56
2023-02-05T11:46:08.484Z,99519.09
2023-02-05T11:51:15.266Z,99508.56
2023-02-05T11:56:25.092Z,99503.50
2023-02-05T12:01:30.600Z,99508.91
2023-02-05T12:06:40.815Z,99512.94
2023-02-05T12:12:06.752Z,99499.09
2023-02-05T12:17:23.577Z,99490.19
2023-02-05T12:22:39.723Z,99485.91
2023-02-05T12:28:26.303Z,99487.88
2023-02-05T12:34:10.107Z,99493.25
2023-02-05T12:39:29.855Z,99484.00
2023-02-05T12:44:40.742Z,99494.72
2023-02-05T12:50:10.611Z,99482.09
2023-02-05T12:55:31.906Z,99485.69
2023-02-05T13:00:51.708Z,99486.72
2023-02-05T13:06:00.774Z,99474.19
2023-02-05T13:11:10.598Z,99473.34
2023-02-05T13:16:16.344Z,99478.03
2023-02-05T13:21:38.657Z,99475.50
2023-02-05T13:27:03.090Z,99481.50
2023-02-05T13:32:15.677Z,99469.44
2023-02-05T13:37:29.982Z,99473.34
2023-02-05T13:42:49.495Z,99478.50
2023-02-05T13:47:54.105Z,99478.31
2023-02-05T13:53:06.179Z,99492.50
2023-02-05T13:58:24.285Z,99499.44
2023-02-05T14:03:33.732Z,99494.28
2023-02-05T14:08:38.835Z,99482.50
2023-02-05T14:13:40.550Z,99482.16
2023-02-05T14:18:44.953Z,99488.16
2023-02-05T14:23:46.526Z,99484.09
2023-02-05T14:28:50.689Z,99488.59
2023-02-05T14:33:52.333Z,99482.34
2023-02-05T14:39:00.932Z,99500.38
2023-02-05T14:44:18.031Z,99507.16
2023-02-05T14:49:26.867Z,99511.75
2023-02-05T14:54:41.613Z,99511.00
2023-02-05T14:59:56.070Z,99511.84
2023-02-05T15:04:58.834Z,99514.41
2023-02-05T15:10:06.817Z,99528.63
2023-02-05T15:15:28.606Z,99520.31
2023-02-05T15:20:33.803Z,99510.50
2023-02-05T15:25:47.256Z,99507.81
2023-02-05T15:31:12.433Z,99503.97
2023-02-05T15:36:35.993Z,99495.84
2023-02-05T15:41:41.899Z,99491.06
2023-02-05T15:46:44.089Z,99501.56
2023-02-05T15:51:47.893Z,99504.66
2023-02-05T15:56:52.655Z,99517.03
2023-02-05T16:02:16.472Z,99511.25
2023-02-05T16:07:27.422Z,99527.91
2023-02-05T16:12:31.343Z,99523.53
2023-02-05T16:17:39.993Z,99541.00
2023-02-05T16:22:52.512Z,99553.09
2023-02-05T16:27:57.864Z,99560.81
2023-02-05T16:33:03.481Z,99566.59
2023-02-05T16:38:09.620Z,99587.38
2023-02-05T16:43:28.737Z,99596.22
2023-02-05T16:48:31.828Z,99607.94
2023-02-05T16:53:36.823Z,99606.69
2023-02-05T16:58:45.606Z,99618.06
2023-02-05T17:03:50.090Z,99620.06
2023-02-05T17:08:55.360Z,99613.59
2023-02-05T17:14:32.980Z,99620.84
2023-02-05T17:19:34.644Z,99613.50
2023-02-05T17:24:36.250Z,99615.34
2023-02-05T17:29:37.941Z,99624.78
2023-02-05T17:34:39.557Z,99629.00
2023-02-05T17:39:41.286Z,99626.84
2023-02-05T17:44:42.874Z,99623.47
2023-02-05T17:49:44.560Z,99618.53
2023-02-05T17:54:46.487Z,99628.78
2023-02-05T17:59:49.076Z,99623.22
2023-02-05T18:04:50.692Z,99623.59
2023-02-05T18:09:52.374Z,99621.38
2023-02-05T18:14:54.614Z,99613.88
2023-02-05T18:19:56.236Z,99622.47
2023-02-05T18:24:57.864Z,99628.69
2023-02-05T18:29:59.519Z,99624.56
2023-02-05T18:35:01.131Z,99631.41
2023-02-05T18:40:02.775Z,99648.47
2023-02-05T18:45:04.688Z,99649.34
2023-02-05T18:50:08.320Z,99650.88
2023-02-05T18:55:12.474Z,99655.06
2023-02-05T19:00:14.542Z,99654.44
2023-02-05T19:05:16.136Z,99678.41
2023-02-05T19:10:18.548Z,99687.25
2023-02-05T19:15:20.206Z,99697.66
2023-02-05T19:20:21.776Z,99690.13
2023-02-05T19:25:24.026Z,99694.34
2023-02-05T19:30:25.619Z,99685.81
2023-02-05T19:35:27.217Z,99690.19
2023-02-05T19:40:28.801Z,99707.22
2023-02-05T19:45:30.524Z,99703.16
2023-02-05T19:50:32.152Z,99704.16
2023-02-05T19:55:34.136Z,99714.53
2023-02-05T20:00:35.935Z,99714.78
2023-02-05T20:05:37.727Z,99712.63
2023-02-05T20:10:39.337Z,99690.75
2023-02-05T20:15:41.022Z,99698.59
2023-02-05T20:20:42.659Z,99707.84
2023-02-05T20:25:52.393Z,99709.44
2023-02-05T20:31:12.667Z,99718.63
2023-02-05T20:36:14.287Z,99719.06
2023-02-05T20:41:18.171Z,99718.38
2023-02-05T20:46:20.091Z,99722.53
2023-02-05T20:51:23.177Z,99726.00
2023-02-05T20:56:27.267Z,99717.66
2023-02-05T21:01:30.520Z,99730.47
2023-02-05T21:06:34.794Z,99733.22
2023-02-05T21:11:37.396Z,99733.31
2023-02-05T21:16:40.346Z,99734.16
2023-02-05T21:21:42.224Z,99750.22
2023-02-05T21:26:46.331Z,99750.34
2023-02-05T21:31:55.825Z,99774.00
2023-02-05T21:36:57.796Z,99771.53
2023-02-05T21:41:59.408Z,99778.38
2023-02-05T21:47:01.037Z,99786.91
2023-02-05T21:52:02.622Z,99791.13
2023-02-05T21:57:04.353Z,99801.28
2023-02-05T22:02:06.504Z,99802.31
2023-02-05T22:07:08.219Z,99802.00
2023-02-05T22:12:09.858Z,99807.28
2023-02-05T22:17:11.448Z,99810.19
2023-02-05T22:22:13.076Z,99819.56
2023-02-05T22:27:14.712Z,99821.44
2023-02-05T22:32:16.321Z,99824.03
2023-02-05T22:37:17.937Z,99823.38
2023-02-05T22:42:19.542Z,99826.81
2023-02-05T22:47:21.155Z,99849.66
2023-02-05T22:52:22.776Z,99859.94
2023-02-05T22:57:24.483Z,99865.25
2023-02-05T23:02:26.096Z,99852.59
2023-02-05T23:07:27.850Z,99862.66
2023-02-05T23:12:29.471Z,99856.88
2023-02-05T23:17:31.139Z,99860.28
2023-02-05T23:22:32.808Z,99857.75
2023-02-05T23:27:34.580Z,99850.19
2023-02-05T23:32:36.253Z,99841.00
2023-02-05T23:37:37.906Z,99842.75
2023-02-05T23:42:39.505Z,99846.09
2023-02-05T23:47:41.149Z,99846.03
2023-02-05T23:52:42.833Z,99853.53
2023-02-05T23:57:44.507Z,99840.78
